createdAt,value
2018-08-24T00:00:34.482Z,64.4
2018-08-24T00:01:23.963Z,64.4
2018-08-24T00:02:14.560Z,64.4
2018-08-24T00:03:03.528Z,64.4
2018-08-24T00:03:54.742Z,64.4
2018-08-24T00:04:44.473Z,64.4
2018-08-24T00:05:34.615Z,64.4
2018-08-24T00:06:24.856Z,64.4
2018-08-24T00:07:15.015Z,64.4
2018-08-24T00:08:04.492Z,64.4
2018-08-24T00:08:55.147Z,64.4
2018-08-24T00:09:44.859Z,64.4
2018-08-24T00:10:35.235Z,64.3
2018-08-24T00:11:25.090Z,64.3
2018-08-24T00:12:15.051Z,64.3
2018-08-24T00:31:15.819Z,64.2
2018-08-24T00:32:05.700Z,64.2
2018-08-24T00:32:55.397Z,64.1
2018-08-24T00:33:45.219Z,64.1
2018-08-24T00:34:36.046Z,64.1
2018-08-24T00:35:25.591Z,64.1
2018-08-24T00:36:15.653Z,64.1
2018-08-24T00:37:05.952Z,64.1
2018-08-24T00:37:55.781Z,64.1
2018-08-24T00:38:45.563Z,64.1
2018-08-24T00:39:35.905Z,64.1
2018-08-24T00:40:26.018Z,64.1
2018-08-24T00:41:16.103Z,64.1
2018-08-24T00:42:05.597Z,64.1
2018-08-24T00:42:55.893Z,64.1
2018-08-24T00:43:46.263Z,64.1
2018-08-24T00:44:36.585Z,64.1
2018-08-24T00:45:26.085Z,64
2018-08-24T00:46:16.958Z,64.1
2018-08-24T00:47:06.164Z,64
2018-08-24T00:47:56.585Z,64
2018-08-24T00:48:46.619Z,64
2018-08-24T00:49:35.857Z,64
2018-08-24T00:50:26.775Z,64
2018-08-24T00:51:17.580Z,64
2018-08-24T00:52:06.858Z,63.9
2018-08-24T00:52:57.168Z,63.9
2018-08-24T00:53:46.744Z,64
2018-08-24T00:54:37.088Z,63.9
2018-08-24T00:55:27.091Z,63.9
2018-08-24T00:56:17.003Z,63.9
2018-08-24T00:57:08.062Z,63.9
2018-08-24T00:57:57.326Z,63.9
2018-08-24T00:58:47.385Z,63.9
2018-08-24T00:59:37.169Z,63.9
2018-08-24T01:00:27.567Z,63.9
2018-08-24T01:01:17.022Z,63.9
2018-08-24T01:02:07.628Z,63.9
2018-08-24T01:02:57.168Z,63.9
2018-08-24T01:03:48.037Z,63.9
2018-08-24T01:04:38.155Z,63.9
2018-08-24T01:05:27.930Z,63.9
2018-08-24T01:06:18.240Z,63.9
2018-08-24T01:07:08.554Z,63.9
2018-08-24T01:07:58.345Z,63.9
2018-08-24T01:08:48.460Z,63.8
2018-08-24T01:09:37.411Z,63.8
2018-08-24T01:10:27.952Z,63.8
2018-08-24T01:11:18.418Z,63.8
2018-08-24T01:12:08.652Z,63.8
2018-08-24T01:12:58.462Z,63.8
2018-08-24T01:13:47.707Z,63.8
2018-08-24T01:14:38.905Z,63.8
2018-08-24T01:15:28.684Z,63.8
2018-08-24T01:16:18.157Z,63.8
2018-08-24T01:17:08.827Z,63.8
2018-08-24T01:17:59.394Z,63.8
2018-08-24T01:18:49.154Z,63.8
2018-08-24T01:19:38.718Z,63.8
2018-08-24T01:20:28.803Z,63.8
2018-08-24T01:21:18.888Z,63.8
2018-08-24T01:22:09.751Z,63.8
2018-08-24T01:22:59.525Z,63.7
2018-08-24T01:23:49.007Z,63.8
2018-08-24T01:24:39.372Z,63.7
2018-08-24T01:25:29.168Z,63.7
2018-08-24T01:26:19.754Z,63.7
2018-08-24T01:27:09.310Z,63.7
2018-08-24T01:27:58.835Z,63.7
2018-08-24T01:28:49.944Z,63.7
2018-08-24T01:29:39.564Z,63.7
2018-08-24T01:30:29.552Z,63.6
2018-08-24T01:31:19.591Z,63.6
2018-08-24T01:32:10.248Z,63.6
2018-08-24T01:33:00.310Z,63.6
2018-08-24T01:33:49.790Z,63.6
2018-08-24T01:34:39.568Z,63.6
2018-08-24T01:35:30.188Z,63.6
2018-08-24T01:36:20.263Z,63.6
2018-08-24T01:37:10.310Z,63.6
2018-08-24T01:38:00.604Z,63.6
2018-08-24T01:38:50.758Z,63.6
2018-08-24T01:39:40.484Z,63.6
2018-08-24T01:40:30.888Z,63.6
2018-08-24T01:41:20.651Z,63.6
2018-08-24T01:42:25.644Z,63.6
2018-08-24T01:43:00.449Z,63.6
2018-08-24T01:43:50.332Z,63.5
2018-08-24T01:44:40.649Z,63.6
2018-08-24T01:45:30.736Z,63.5
2018-08-24T01:46:20.249Z,63.5
2018-08-24T01:47:11.182Z,63.5
2018-08-24T01:48:00.963Z,63.5
2018-08-24T01:48:50.196Z,63.5
2018-08-24T01:49:41.219Z,63.5
2018-08-24T01:50:31.057Z,63.5
2018-08-24T01:51:21.253Z,63.5
2018-08-24T01:52:12.214Z,63.4
2018-08-24T01:53:01.526Z,63.4
2018-08-24T01:53:51.792Z,63.4
2018-08-24T01:54:41.636Z,63.4
2018-08-24T01:55:31.769Z,63.4
2018-08-24T01:56:21.789Z,63.4
2018-08-24T01:57:12.127Z,63.4
2018-08-24T01:58:01.665Z,63.4
2018-08-24T01:58:52.317Z,63.4
2018-08-24T01:59:41.750Z,63.4
2018-08-24T02:00:31.849Z,63.4
2018-08-24T02:01:22.471Z,63.4
2018-08-24T02:02:11.945Z,63.4
2018-08-24T02:03:01.805Z,63.4
2018-08-24T02:03:52.960Z,63.4
2018-08-24T02:04:42.976Z,63.4
2018-08-24T02:05:32.216Z,63.4
2018-08-24T02:06:22.609Z,63.4
2018-08-24T02:07:13.133Z,63.4
2018-08-24T02:08:02.980Z,63.4
2018-08-24T02:08:52.260Z,63.3
2018-08-24T02:09:57.747Z,63.3
2018-08-24T02:10:33.184Z,63.3
2018-08-24T02:11:22.662Z,63.3
2018-08-24T02:12:13.053Z,63.3
2018-08-24T02:13:02.493Z,63.3
2018-08-24T02:13:53.526Z,63.3
2018-08-24T02:14:42.921Z,63.3
2018-08-24T02:15:33.009Z,63.3
2018-08-24T02:16:23.048Z,63.3
2018-08-24T02:17:12.880Z,63.3
2018-08-24T02:18:02.611Z,63.3
2018-08-24T02:18:53.811Z,63.3
2018-08-24T02:19:43.555Z,63.3
2018-08-24T02:20:33.607Z,63.3
2018-08-24T02:21:23.467Z,63.3
2018-08-24T02:22:13.785Z,63.3
2018-08-24T02:23:04.123Z,63.2
2018-08-24T02:23:54.420Z,63.2
2018-08-24T02:24:43.713Z,63.2
2018-08-24T02:25:33.824Z,63.2
2018-08-24T02:26:23.557Z,63.2
2018-08-24T02:27:13.897Z,63.2
2018-08-24T02:28:04.347Z,63.2
2018-08-24T02:28:53.995Z,63.2
2018-08-24T02:29:43.548Z,63.1
2018-08-24T02:30:34.693Z,63.1
2018-08-24T02:31:25.081Z,63.1
2018-08-24T02:32:14.037Z,63.1
2018-08-24T02:33:04.611Z,63.1
2018-08-24T02:33:54.914Z,63.1
2018-08-24T02:34:45.253Z,63.1
2018-08-24T02:35:35.374Z,63.1
2018-08-24T02:36:24.316Z,63.1
2018-08-24T02:37:14.367Z,63.1
2018-08-24T02:38:19.386Z,63.1
2018-08-24T02:38:55.076Z,63.1
2018-08-24T02:39:44.848Z,63.1
2018-08-24T02:40:34.623Z,63.1
2018-08-24T02:41:25.516Z,63.1
2018-08-24T02:42:15.382Z,63.1
2018-08-24T02:43:05.727Z,63.1
2018-08-24T02:43:55.633Z,63.1
2018-08-24T02:44:46.065Z,63
2018-08-24T02:45:35.588Z,63
2018-08-24T02:46:26.103Z,63
2018-08-24T02:47:15.962Z,63
2018-08-24T02:48:06.044Z,63
2018-08-24T02:48:56.140Z,63
2018-08-24T02:49:45.866Z,63
2018-08-24T02:50:35.674Z,62.9
2018-08-24T02:51:25.971Z,62.9
2018-08-24T02:52:16.101Z,63
2018-08-24T02:53:06.109Z,62.9
2018-08-24T02:53:55.918Z,62.9
2018-08-24T02:54:46.251Z,62.9
2018-08-24T02:55:36.119Z,62.9
2018-08-24T02:56:25.858Z,62.9
2018-08-24T02:57:16.100Z,62.9
2018-08-24T02:58:06.399Z,62.9
2018-08-24T02:58:56.136Z,62.9
2018-08-24T02:59:46.144Z,62.9
2018-08-24T03:00:50.618Z,62.9
2018-08-24T03:01:26.512Z,62.9
2018-08-24T03:02:17.161Z,62.9
2018-08-24T03:03:05.886Z,62.9
2018-08-24T03:03:56.726Z,62.8
2018-08-24T03:04:47.028Z,62.9
2018-08-24T03:05:40.614Z,62.8
2018-08-24T03:06:27.145Z,62.8
2018-08-24T03:07:17.485Z,62.8
2018-08-24T03:08:08.123Z,62.8
2018-08-24T03:08:57.328Z,62.8
2018-08-24T03:09:48.125Z,62.8
2018-08-24T03:10:37.029Z,62.8
2018-08-24T03:11:28.102Z,62.8
2018-08-24T03:12:17.564Z,62.8
2018-08-24T03:13:07.716Z,62.8
2018-08-24T03:13:57.201Z,62.8
2018-08-24T03:14:47.298Z,62.8
2018-08-24T03:15:38.116Z,62.8
2018-08-24T03:16:29.102Z,62.8
2018-08-24T03:17:18.064Z,62.8
2018-08-24T03:18:07.508Z,62.8
2018-08-24T03:18:58.203Z,62.7
2018-08-24T03:19:47.666Z,62.8
2018-08-24T03:20:38.275Z,62.8
2018-08-24T03:21:28.336Z,62.7
2018-08-24T03:22:18.967Z,62.7
2018-08-24T03:23:08.463Z,62.7
2018-08-24T03:23:58.501Z,62.7
2018-08-24T03:24:47.801Z,62.7
2018-08-24T03:25:38.180Z,62.7
2018-08-24T03:26:28.274Z,62.7
2018-08-24T03:27:18.823Z,62.7
2018-08-24T03:28:09.098Z,62.6
2018-08-24T03:28:58.872Z,62.6
2018-08-24T03:29:49.178Z,62.6
2018-08-24T03:30:39.276Z,62.6
2018-08-24T03:31:29.156Z,62.6
2018-08-24T03:32:19.782Z,62.6
2018-08-24T03:33:09.191Z,62.6
2018-08-24T03:33:58.979Z,62.6
2018-08-24T03:34:49.539Z,62.6
2018-08-24T03:35:39.800Z,62.6
2018-08-24T03:36:29.768Z,62.6
2018-08-24T03:37:18.746Z,62.6
2018-08-24T03:38:09.161Z,62.6
2018-08-24T03:38:59.454Z,62.6
2018-08-24T03:39:50.248Z,62.6
2018-08-24T03:40:39.805Z,62.6
2018-08-24T03:41:30.159Z,62.6
2018-08-24T03:42:20.174Z,62.6
2018-08-24T03:43:10.300Z,62.6
2018-08-24T03:44:00.338Z,62.5
2018-08-24T03:44:49.582Z,62.5
2018-08-24T03:45:39.744Z,62.5
2018-08-24T03:46:29.738Z,62.5
2018-08-24T03:47:19.795Z,62.5
2018-08-24T03:48:09.729Z,62.5
2018-08-24T03:48:59.215Z,62.5
2018-08-24T03:49:50.856Z,62.4
2018-08-24T03:50:40.861Z,62.4
2018-08-24T03:51:31.001Z,62.4
2018-08-24T03:52:35.635Z,62.4
2018-08-24T03:53:10.719Z,62.4
2018-08-24T03:54:00.561Z,62.4
2018-08-24T03:54:49.481Z,62.4
2018-08-24T03:55:40.937Z,62.4
2018-08-24T03:56:31.292Z,62.4
2018-08-24T03:57:21.300Z,62.4
2018-08-24T03:58:11.126Z,62.4
2018-08-24T03:59:01.409Z,62.4
2018-08-24T03:59:51.254Z,62.4
2018-08-24T04:00:41.317Z,62.4
2018-08-24T04:01:31.703Z,62.4
2018-08-24T04:02:21.307Z,62.4
2018-08-24T04:03:11.282Z,62.4
2018-08-24T04:04:01.549Z,62.4
2018-08-24T04:04:51.386Z,62.3
2018-08-24T04:05:41.683Z,62.4
2018-08-24T04:06:32.081Z,62.3
2018-08-24T04:07:22.141Z,62.3
2018-08-24T04:08:11.883Z,62.3
2018-08-24T04:09:02.020Z,62.3
2018-08-24T04:09:52.274Z,62.3
2018-08-24T04:10:42.380Z,62.3
2018-08-24T04:11:32.221Z,62.3
2018-08-24T04:12:22.207Z,62.3
2018-08-24T04:13:12.782Z,62.3
2018-08-24T04:14:03.059Z,62.3
2018-08-24T04:14:52.401Z,62.3
2018-08-24T04:15:42.471Z,62.3
2018-08-24T04:16:32.285Z,62.3
2018-08-24T04:17:23.082Z,62.3
2018-08-24T04:18:12.391Z,62.3
2018-08-24T04:19:02.168Z,62.3
2018-08-24T04:19:53.151Z,62.3
2018-08-24T04:20:43.040Z,62.3
2018-08-24T04:21:32.733Z,62.2
2018-08-24T04:22:23.010Z,62.3
2018-08-24T04:23:13.101Z,62.2
2018-08-24T04:24:02.553Z,62.2
2018-08-24T04:24:53.506Z,62.2
2018-08-24T04:25:43.961Z,62.2
2018-08-24T04:26:33.644Z,62.2
2018-08-24T04:27:23.652Z,62.2
2018-08-24T04:28:13.734Z,62.1
2018-08-24T04:29:03.512Z,62.1
2018-08-24T04:29:53.842Z,62.1
2018-08-24T04:30:43.934Z,62.1
2018-08-24T04:31:34.043Z,62.1
2018-08-24T04:32:24.347Z,62.1
2018-08-24T04:33:14.103Z,62.1
2018-08-24T04:34:03.841Z,62.1
2018-08-24T04:34:54.881Z,62.1
2018-08-24T04:35:44.029Z,62.1
2018-08-24T04:36:33.792Z,62.1
2018-08-24T04:37:23.945Z,62.1
2018-08-24T04:38:14.158Z,62.1
2018-08-24T04:39:03.753Z,62.1
2018-08-24T04:39:53.751Z,62.1
2018-08-24T04:40:43.894Z,62.1
2018-08-24T04:41:33.894Z,62.1
2018-08-24T04:42:25.088Z,62
2018-08-24T05:00:26.074Z,61.9
2018-08-24T05:01:16.901Z,61.9
2018-08-24T05:02:07.008Z,61.9
2018-08-24T05:02:57.017Z,61.9
2018-08-24T05:03:46.820Z,61.9
2018-08-24T05:04:37.397Z,61.8
2018-08-24T05:05:27.538Z,61.9
2018-08-24T05:06:17.052Z,61.8
2018-08-24T05:07:06.775Z,61.8
2018-08-24T05:07:57.428Z,61.8
2018-08-24T05:08:46.901Z,61.8
2018-08-24T05:09:37.323Z,61.8
2018-08-24T05:10:27.889Z,61.8
2018-08-24T05:11:17.092Z,61.8
2018-08-24T05:12:06.861Z,61.8
2018-08-24T05:12:57.520Z,61.8
2018-08-24T05:13:47.847Z,61.8
2018-08-24T05:14:37.658Z,61.8
2018-08-24T05:15:28.068Z,61.8
2018-08-24T05:16:17.826Z,61.8
2018-08-24T05:17:07.593Z,61.8
2018-08-24T05:17:57.613Z,61.7
2018-08-24T05:18:47.957Z,61.7
2018-08-24T05:19:38.008Z,61.7
2018-08-24T05:20:28.334Z,61.8
2018-08-24T05:21:17.711Z,61.7
2018-08-24T05:22:07.337Z,61.7
2018-08-24T05:22:58.283Z,61.7
2018-08-24T05:23:48.421Z,61.7
2018-08-24T05:24:38.131Z,61.7
2018-08-24T05:25:28.471Z,61.7
2018-08-24T05:26:18.240Z,61.6
2018-08-24T05:27:08.283Z,61.6
2018-08-24T05:27:58.383Z,61.6
2018-08-24T05:28:48.760Z,61.6
2018-08-24T05:29:38.788Z,61.6
2018-08-24T05:30:28.580Z,61.6
2018-08-24T05:31:19.178Z,61.6
2018-08-24T05:32:08.732Z,61.6
2018-08-24T05:32:58.726Z,61.6
2018-08-24T05:33:48.790Z,61.6
2018-08-24T05:34:38.880Z,61.6
2018-08-24T05:35:29.101Z,61.6
2018-08-24T05:36:19.255Z,61.6
2018-08-24T05:37:08.764Z,61.6
2018-08-24T05:37:58.937Z,61.6
2018-08-24T05:38:48.642Z,61.5
2018-08-24T05:39:38.671Z,61.5
2018-08-24T05:40:29.551Z,61.5
2018-08-24T05:41:20.426Z,61.5
2018-08-24T05:42:10.046Z,61.5
2018-08-24T05:42:59.830Z,61.5
2018-08-24T05:43:49.841Z,61.5
2018-08-24T05:44:39.940Z,61.5
2018-08-24T05:45:30.203Z,61.4
2018-08-24T05:46:19.501Z,61.4
2018-08-24T05:47:09.623Z,61.4
2018-08-24T05:48:00.472Z,61.4
2018-08-24T05:48:51.070Z,61.4
2018-08-24T05:49:40.309Z,61.4
2018-08-24T05:50:30.553Z,61.4
2018-08-24T05:51:20.509Z,61.4
2018-08-24T05:52:10.781Z,61.4
2018-08-24T05:53:00.271Z,61.4
2018-08-24T05:53:50.035Z,61.4
2018-08-24T05:54:40.964Z,61.4
2018-08-24T05:55:30.605Z,61.4
2018-08-24T05:56:21.131Z,61.4
2018-08-24T05:57:11.419Z,61.4
2018-08-24T05:58:00.085Z,61.4
2018-08-24T05:58:51.339Z,61.4
2018-08-24T05:59:39.634Z,61.3
2018-08-24T06:00:31.176Z,61.3
2018-08-24T06:01:20.638Z,61.3
2018-08-24T06:02:11.846Z,61.3
2018-08-24T06:03:01.856Z,61.3
2018-08-24T06:03:51.378Z,61.3
2018-08-24T06:04:41.728Z,61.3
2018-08-24T06:05:31.224Z,61.3
2018-08-24T06:06:21.867Z,61.3
2018-08-24T06:07:11.931Z,61.3
2018-08-24T06:08:01.712Z,61.3
2018-08-24T06:08:51.771Z,61.3
2018-08-24T06:09:42.169Z,61.3
2018-08-24T06:10:31.945Z,61.3
2018-08-24T06:11:21.953Z,61.3
2018-08-24T06:12:12.028Z,61.3
2018-08-24T06:13:02.361Z,61.3
2018-08-24T06:13:52.161Z,61.3
2018-08-24T06:14:42.558Z,61.2
2018-08-24T06:15:32.577Z,61.3
2018-08-24T06:16:21.791Z,61.2
2018-08-24T06:17:12.438Z,61.2
2018-08-24T06:18:02.899Z,61.2
2018-08-24T06:18:52.556Z,61.2
2018-08-24T06:19:42.345Z,61.2
2018-08-24T06:20:32.463Z,61.1
2018-08-24T06:21:22.798Z,61.2
2018-08-24T06:22:12.287Z,61.2
2018-08-24T06:23:02.888Z,61.1
2018-08-24T06:23:52.096Z,61.1
2018-08-24T06:24:42.624Z,61.1
2018-08-24T06:25:33.073Z,61.1
2018-08-24T06:26:23.399Z,61.1
2018-08-24T06:27:12.928Z,61.1
2018-08-24T06:28:02.650Z,61.1
2018-08-24T06:28:52.775Z,61.1
2018-08-24T06:29:43.110Z,61.1
2018-08-24T06:30:33.172Z,61.1
2018-08-24T06:31:23.495Z,61.1
2018-08-24T06:32:13.571Z,61.1
2018-08-24T06:33:04.200Z,61.1
2018-08-24T06:33:53.752Z,61.1
2018-08-24T06:34:44.075Z,61.1
2018-08-24T06:35:33.251Z,61.1
2018-08-24T06:36:24.177Z,61.1
2018-08-24T06:37:13.673Z,61.1
2018-08-24T06:38:04.012Z,61
2018-08-24T06:38:54.372Z,61
2018-08-24T06:39:44.141Z,61
2018-08-24T06:40:34.222Z,61
2018-08-24T06:41:24.222Z,61
2018-08-24T06:42:14.313Z,61
2018-08-24T06:43:04.948Z,61
2018-08-24T06:43:53.733Z,60.9
2018-08-24T06:44:44.787Z,61
2018-08-24T06:45:34.292Z,61
2018-08-24T06:46:24.679Z,60.9
2018-08-24T06:47:15.550Z,60.9
2018-08-24T06:48:05.110Z,60.9
2018-08-24T06:48:54.303Z,60.9
2018-08-24T06:49:45.199Z,60.9
2018-08-24T06:50:34.674Z,60.9
2018-08-24T06:51:24.997Z,60.9
2018-08-24T06:52:14.804Z,60.9
2018-08-24T06:53:05.192Z,60.9
2018-08-24T06:53:56.467Z,60.9
2018-08-24T06:54:44.993Z,60.9
2018-08-24T06:55:35.064Z,60.9
2018-08-24T06:56:25.767Z,60.9
2018-08-24T06:57:15.488Z,60.9
2018-08-24T06:58:05.601Z,60.9
2018-08-24T06:58:55.896Z,60.9
2018-08-24T06:59:46.444Z,60.9
2018-08-24T07:00:35.163Z,60.9
2018-08-24T07:01:25.818Z,60.9
2018-08-24T07:02:15.906Z,60.9
2018-08-24T07:03:06.226Z,60.8
2018-08-24T07:03:56.265Z,60.8
2018-08-24T07:04:46.059Z,60.8
2018-08-24T07:05:36.553Z,60.8
2018-08-24T07:06:25.999Z,60.8
2018-08-24T07:07:15.981Z,60.8
2018-08-24T07:08:05.867Z,60.8
2018-08-24T07:08:56.919Z,60.8
2018-08-24T07:09:46.697Z,60.8
2018-08-24T07:10:36.841Z,60.8
2018-08-24T07:11:26.876Z,60.8
2018-08-24T07:12:16.984Z,60.8
2018-08-24T07:13:07.137Z,60.8
2018-08-24T07:13:56.806Z,60.8
2018-08-24T07:14:47.383Z,60.8
2018-08-24T07:15:36.946Z,60.8
2018-08-24T07:16:27.249Z,60.8
2018-08-24T07:17:17.326Z,60.8
2018-08-24T07:18:07.110Z,60.7
2018-08-24T07:18:56.701Z,60.7
2018-08-24T07:19:47.217Z,60.7
2018-08-24T07:20:37.293Z,60.7
2018-08-24T07:21:27.062Z,60.7
2018-08-24T07:22:16.833Z,60.7
2018-08-24T07:23:07.216Z,60.7
2018-08-24T07:23:58.317Z,60.7
2018-08-24T07:24:47.592Z,60.7
2018-08-24T07:25:37.649Z,60.7
2018-08-24T07:26:27.454Z,60.6
2018-08-24T07:27:18.062Z,60.6
2018-08-24T07:28:08.158Z,60.6
2018-08-24T07:28:58.443Z,60.6
2018-08-24T07:29:47.747Z,60.6
2018-08-24T07:30:38.054Z,60.6
2018-08-24T07:31:28.132Z,60.6
2018-08-24T07:32:18.213Z,60.6
2018-08-24T07:33:07.705Z,60.6
2018-08-24T07:33:58.525Z,60.6
2018-08-24T07:34:48.884Z,60.6
2018-08-24T07:35:38.473Z,60.6
2018-08-24T07:36:27.950Z,60.6
2018-08-24T07:37:18.872Z,60.6
2018-08-24T07:38:08.375Z,60.6
2018-08-24T07:38:58.445Z,60.5
2018-08-24T07:39:49.032Z,60.6
2018-08-24T07:40:39.129Z,60.5
2018-08-24T07:41:28.938Z,60.5
2018-08-24T07:42:18.973Z,60.5
2018-08-24T07:43:09.012Z,60.4
2018-08-24T07:43:58.830Z,60.4
2018-08-24T07:44:48.855Z,60.4
2018-08-24T07:45:39.220Z,60.3
2018-08-24T07:46:28.505Z,60.3
2018-08-24T07:47:19.083Z,60.3
2018-08-24T07:48:09.145Z,60.3
2018-08-24T07:48:59.842Z,60.3
2018-08-24T07:49:49.502Z,60.2
2018-08-24T07:50:40.026Z,60.1
2018-08-24T07:51:29.652Z,60.1
2018-08-24T07:52:19.736Z,60
2018-08-24T07:53:10.099Z,59.9
2018-08-24T07:54:00.166Z,59.8
2018-08-24T07:54:49.599Z,59.7
2018-08-24T07:55:40.066Z,59.6
2018-08-24T07:56:30.304Z,59.6
2018-08-24T07:57:20.151Z,59.6
2018-08-24T07:58:10.429Z,59.5
2018-08-24T07:59:00.524Z,59.4
2018-08-24T07:59:51.114Z,59.3
2018-08-24T08:00:39.913Z,59.3
2018-08-24T08:01:30.762Z,59.3
2018-08-24T08:02:20.810Z,59.3
2018-08-24T08:03:10.858Z,59.2
2018-08-24T08:04:00.673Z,59.2
2018-08-24T08:04:51.272Z,59.2
2018-08-24T08:05:40.905Z,59.2
2018-08-24T08:06:30.672Z,59.2
2018-08-24T08:07:21.191Z,59.1
2018-08-24T08:08:10.687Z,59.1
2018-08-24T08:09:01.045Z,59.1
2018-08-24T08:09:51.141Z,59.1
2018-08-24T08:10:40.595Z,59.1
2018-08-24T08:11:31.221Z,59.1
2018-08-24T08:12:21.044Z,59.1
2018-08-24T08:13:11.378Z,59.1
2018-08-24T08:14:01.724Z,59.1
2018-08-24T08:14:51.488Z,59.1
2018-08-24T08:15:41.602Z,59.1
2018-08-24T08:16:31.632Z,59.1
2018-08-24T08:17:21.487Z,59.1
2018-08-24T08:18:12.535Z,59.1
2018-08-24T08:19:01.535Z,59.1
2018-08-24T08:19:52.217Z,59.1
2018-08-24T08:20:42.204Z,59.1
2018-08-24T08:21:31.439Z,59
2018-08-24T08:22:22.111Z,59
2018-08-24T08:23:12.454Z,59
2018-08-24T08:24:01.627Z,59
2018-08-24T08:24:53.645Z,58.9
2018-08-24T08:25:42.080Z,59
2018-08-24T08:26:32.397Z,58.9
2018-08-24T08:27:22.494Z,58.9
2018-08-24T08:28:12.835Z,58.9
2018-08-24T08:29:02.541Z,58.9
2018-08-24T08:29:52.664Z,58.9
2018-08-24T08:30:41.984Z,58.9
2018-08-24T08:31:32.826Z,58.9
2018-08-24T08:32:23.124Z,58.9
2018-08-24T08:33:12.906Z,58.9
2018-08-24T08:34:03.249Z,58.9
2018-08-24T08:34:53.588Z,58.9
2018-08-24T08:35:43.631Z,58.9
2018-08-24T08:36:33.460Z,58.9
2018-08-24T08:37:23.809Z,58.9
2018-08-24T08:38:13.051Z,58.9
2018-08-24T08:39:04.190Z,58.9
2018-08-24T08:39:52.941Z,58.8
2018-08-24T08:40:43.480Z,58.8
2018-08-24T08:41:33.305Z,58.8
2018-08-24T08:42:23.636Z,58.8
2018-08-24T08:43:13.999Z,58.8
2018-08-24T08:44:03.443Z,58.8
2018-08-24T08:44:53.881Z,58.8
2018-08-24T08:45:43.639Z,58.8
2018-08-24T08:46:34.276Z,58.8
2018-08-24T08:47:24.287Z,58.7
2018-08-24T08:48:13.762Z,58.7
2018-08-24T08:49:04.433Z,58.6
2018-08-24T08:49:53.944Z,58.6
2018-08-24T08:50:44.580Z,58.6
2018-08-24T08:51:34.352Z,58.6
2018-08-24T08:56:34.534Z,58.5
2018-08-24T08:58:15.150Z,58.5
2018-08-24T09:14:57.012Z,58.1
2018-08-24T09:15:46.279Z,58.1
2018-08-24T09:16:35.773Z,58.1
2018-08-24T09:17:26.142Z,58.1
2018-08-24T09:18:15.951Z,58.1
2018-08-24T09:19:06.044Z,58.1
2018-08-24T09:19:56.793Z,58.1
2018-08-24T09:20:46.402Z,58.1
2018-08-24T09:21:36.729Z,58.1
2018-08-24T09:22:26.806Z,58.1
2018-08-24T09:23:15.983Z,58.1
2018-08-24T09:24:06.383Z,58.1
2018-08-24T09:24:56.686Z,58.1
2018-08-24T09:25:47.472Z,58
2018-08-24T09:26:37.096Z,58
2018-08-24T09:27:26.655Z,58.1
2018-08-24T09:28:17.254Z,58
2018-08-24T09:29:07.347Z,58
2018-08-24T09:30:46.885Z,57.8
2018-08-24T09:31:37.253Z,57.8
2018-08-24T09:32:28.700Z,57.8
2018-08-24T09:33:17.152Z,57.7
2018-08-24T09:34:06.673Z,57.6
2018-08-24T09:34:57.155Z,57.4
2018-08-24T09:35:46.506Z,57.3
2018-08-24T09:36:37.356Z,57.3
2018-08-24T09:37:27.469Z,57.2
2018-08-24T09:38:17.533Z,57.1
2018-08-24T09:39:07.565Z,57.1
2018-08-24T09:39:57.213Z,57.2
2018-08-24T09:40:47.462Z,57.3
2018-08-24T09:41:37.745Z,57.3
2018-08-24T09:42:27.813Z,57.4
2018-08-24T09:43:18.180Z,57.4
2018-08-24T09:44:08.740Z,57.5
2018-08-24T09:44:58.329Z,57.6
2018-08-24T09:45:48.045Z,57.7
2018-08-24T09:48:18.541Z,57.9
2018-08-24T09:49:10.221Z,57.9
2018-08-24T09:49:58.386Z,58
2018-08-24T09:50:48.293Z,58.1
2018-08-24T09:51:39.194Z,58.2
2018-08-24T09:52:29.262Z,58.3
2018-08-24T09:53:18.968Z,58.3
2018-08-24T09:54:08.979Z,58.4
2018-08-24T09:54:58.503Z,58.5
2018-08-24T09:55:49.101Z,58.5
2018-08-24T09:57:29.276Z,58.7
2018-08-24T09:58:19.580Z,58.8
2018-08-24T09:59:09.626Z,58.8
2018-08-24T09:59:59.719Z,58.9
2018-08-24T10:00:49.277Z,59
2018-08-24T10:01:39.579Z,59.1
2018-08-24T10:02:29.955Z,59.2
2018-08-24T10:03:19.428Z,59.3
2018-08-24T10:04:10.050Z,59.3
2018-08-24T10:04:59.530Z,59.4
2018-08-24T10:05:49.625Z,59.5
2018-08-24T10:06:40.259Z,59.6
2018-08-24T10:07:30.362Z,59.7
2018-08-24T10:08:20.075Z,59.7
2018-08-24T10:09:10.198Z,59.8
2018-08-24T10:10:00.754Z,59.9
2018-08-24T10:10:49.714Z,59.9
2018-08-24T10:11:40.404Z,60
2018-08-24T10:12:30.909Z,60.1
2018-08-24T10:13:21.067Z,60.2
2018-08-24T10:14:10.602Z,60.3
2018-08-24T10:15:00.142Z,60.3
2018-08-24T10:15:50.693Z,60.4
2018-08-24T10:16:41.027Z,60.4
2018-08-24T10:17:30.844Z,60.5
2018-08-24T10:18:20.869Z,60.6
2018-08-24T10:19:11.214Z,60.6
2018-08-24T10:20:01.311Z,60.7
2018-08-24T10:20:51.077Z,60.7
2018-08-24T10:21:41.439Z,60.8
2018-08-24T10:22:30.639Z,60.8
2018-08-24T10:23:21.518Z,60.9
2018-08-24T10:24:11.601Z,61
2018-08-24T10:25:01.909Z,61.1
2018-08-24T10:25:51.735Z,61.1
2018-08-24T10:26:41.548Z,61.2
2018-08-24T10:27:31.672Z,61.3
2018-08-24T10:28:22.227Z,61.4
2018-08-24T10:29:12.546Z,61.4
2018-08-24T10:30:02.066Z,61.6
2018-08-24T10:30:51.869Z,61.7
2018-08-24T10:31:41.961Z,61.8
2018-08-24T10:32:31.999Z,61.8
2018-08-24T10:33:22.313Z,61.9
2018-08-24T10:34:12.482Z,61.9
2018-08-24T10:35:02.318Z,62
2018-08-24T10:35:52.533Z,62.1
2018-08-24T10:36:43.096Z,62.1
2018-08-24T10:37:32.113Z,62.2
2018-08-24T10:38:22.755Z,62.2
2018-08-24T10:39:13.579Z,62.2
2018-08-24T10:40:02.613Z,62.2
2018-08-24T10:40:53.179Z,62.3
2018-08-24T10:41:42.725Z,62.3
2018-08-24T10:42:32.810Z,62.3
2018-08-24T10:43:22.568Z,62.3
2018-08-24T10:44:12.953Z,62.3
2018-08-24T10:45:03.242Z,62.3
2018-08-24T10:45:53.344Z,62.3
2018-08-24T10:46:42.538Z,62.3
2018-08-24T10:47:32.935Z,62.3
2018-08-24T10:48:23.573Z,62.3
2018-08-24T10:49:13.402Z,62.4
2018-08-24T10:50:03.671Z,62.4
2018-08-24T10:50:53.749Z,62.4
2018-08-24T10:51:42.646Z,62.4
2018-08-24T10:52:33.277Z,62.4
2018-08-24T10:53:23.656Z,62.5
2018-08-24T10:54:13.700Z,62.6
2018-08-24T10:55:05.116Z,62.6
2018-08-24T10:55:54.909Z,62.6
2018-08-24T10:56:43.362Z,62.6
2018-08-24T10:57:33.445Z,62.7
2018-08-24T10:58:23.743Z,62.8
2018-08-24T10:59:14.391Z,62.8
2018-08-24T11:00:04.227Z,62.9
2018-08-24T11:00:54.213Z,62.9
2018-08-24T11:01:44.611Z,62.9
2018-08-24T11:02:34.916Z,63
2018-08-24T11:03:24.706Z,63.1
2018-08-24T11:04:14.227Z,63.2
2018-08-24T11:05:03.724Z,63.2
2018-08-24T11:05:54.464Z,63.3
2018-08-24T11:06:44.708Z,63.3
2018-08-24T11:07:35.811Z,63.3
2018-08-24T11:08:24.624Z,63.4
2018-08-24T11:09:15.163Z,63.4
2018-08-24T11:10:05.234Z,63.4
2018-08-24T11:10:55.033Z,63.4
2018-08-24T11:11:45.131Z,63.4
2018-08-24T11:12:34.618Z,63.6
2018-08-24T11:13:24.954Z,63.6
2018-08-24T11:14:14.735Z,63.6
2018-08-24T11:15:05.650Z,63.7
2018-08-24T11:15:55.156Z,63.8
2018-08-24T11:16:46.452Z,63.8
2018-08-24T11:17:35.834Z,63.8
2018-08-24T11:18:26.016Z,63.9
2018-08-24T11:19:15.780Z,63.9
2018-08-24T11:20:05.515Z,64
2018-08-24T11:20:56.079Z,64
2018-08-24T11:21:46.179Z,64.1
2018-08-24T11:22:35.915Z,64.1
2018-08-24T11:23:26.348Z,64.2
2018-08-24T11:24:16.433Z,64.3
2018-08-24T11:25:06.407Z,64.3
2018-08-24T11:25:55.652Z,64.3
2018-08-24T11:26:46.753Z,64.4
2018-08-24T11:27:36.301Z,64.4
2018-08-24T11:28:26.688Z,64.4
2018-08-24T11:29:17.144Z,64.5
2018-08-24T11:30:06.017Z,64.6
2018-08-24T11:30:56.293Z,64.6
2018-08-24T11:31:46.373Z,64.6
2018-08-24T11:32:36.419Z,64.6
2018-08-24T11:33:26.322Z,64.7
2018-08-24T11:34:17.185Z,64.8
2018-08-24T11:35:07.194Z,64.8
2018-08-24T11:35:58.119Z,64.8
2018-08-24T11:36:47.027Z,64.8
2018-08-24T11:37:36.784Z,64.9
2018-08-24T11:38:26.635Z,64.9
2018-08-24T11:39:17.562Z,64.9
2018-08-24T11:40:07.270Z,65
2018-08-24T11:40:57.403Z,65
2018-08-24T11:41:48.199Z,65.1
2018-08-24T11:42:37.525Z,65.1
2018-08-24T11:43:26.739Z,65.1
2018-08-24T11:44:17.916Z,65.1
2018-08-24T11:45:07.427Z,65.2
2018-08-24T11:45:57.491Z,65.3
2018-08-24T11:46:47.808Z,65.3
2018-08-24T11:47:37.328Z,65.3
2018-08-24T11:48:28.485Z,65.3
2018-08-24T11:49:17.506Z,65.4
2018-08-24T11:50:08.360Z,65.4
2018-08-24T11:50:57.858Z,65.4
2018-08-24T11:51:48.490Z,65.4
2018-08-24T11:52:37.999Z,65.4
2018-08-24T11:53:28.880Z,65.5
2018-08-24T11:54:19.673Z,65.5
2018-08-24T11:55:08.516Z,65.6
2018-08-24T11:55:59.111Z,65.6
2018-08-24T11:56:48.675Z,65.6
2018-08-24T11:57:38.423Z,65.6
2018-08-24T11:58:29.775Z,65.7
2018-08-24T11:59:19.103Z,65.8
2018-08-24T12:00:09.159Z,65.8
2018-08-24T12:00:58.944Z,65.8
2018-08-24T12:01:49.262Z,65.8
2018-08-24T12:02:39.345Z,65.9
2018-08-24T12:03:29.130Z,65.9
2018-08-24T12:04:18.930Z,66
2018-08-24T12:05:09.498Z,66
2018-08-24T12:05:59.319Z,66.1
2018-08-24T12:06:48.526Z,66.1
2018-08-24T12:07:39.175Z,66.1
2018-08-24T12:08:31.153Z,66.1